Terminal Aerodrome Forecast
Issued by NWS Bismarck, ND

Home | Current Version | Previous Version | Text Only | Print | Product List | Glossary Off
Versions: 1 2 3 4 5 6 7 8 9 10 11 12 13 14 15 16 17 18 19 20 21 22 23 24 25 26 27

618
FTUS43 KBIS 220520
TAFISN
TAF
KISN 220520Z 2206/2306 05007KT P6SM OVC040
     FM221400 08009KT P6SM OVC035
     FM221700 09015G22KT P6SM VCSH OVC045
     FM222100 09016G25KT P6SM OVC040=

USA.gov is the U.S. government's official web portal to all federal, state and local government web resources and services.